sensor_id;sensor_type;location;lat;lon;timestamp;P1;durP1;ratioP1;P2;durP2;ratioP2
33266;SDS011;19638;49.080;11.896;2023-04-28T00:00:35;11.37;;;6.50;;
33266;SDS011;19638;49.080;11.896;2023-04-28T00:04:41;17.03;;;7.67;;
33266;SDS011;19638;49.080;11.896;2023-04-28T00:08:48;13.13;;;8.07;;
33266;SDS011;19638;49.080;11.896;2023-04-28T00:12:52;13.10;;;7.17;;
33266;SDS011;19638;49.080;11.896;2023-04-28T00:16:55;15.23;;;7.37;;
33266;SDS011;19638;49.080;11.896;2023-04-28T00:21:02;10.27;;;7.57;;
33266;SDS011;19638;49.080;11.896;2023-04-28T00:25:05;12.97;;;6.67;;
33266;SDS011;19638;49.080;11.896;2023-04-28T00:29:09;11.93;;;7.03;;
33266;SDS011;19638;49.080;11.896;2023-04-28T00:33:17;9.30;;;6.30;;
33266;SDS011;19638;49.080;11.896;2023-04-28T00:37:29;11.03;;;8.13;;
33266;SDS011;19638;49.080;11.896;2023-04-28T00:41:37;10.03;;;7.43;;
33266;SDS011;19638;49.080;11.896;2023-04-28T00:45:43;13.33;;;6.90;;
33266;SDS011;19638;49.080;11.896;2023-04-28T00:49:49;15.20;;;6.73;;
33266;SDS011;19638;49.080;11.896;2023-04-28T00:53:54;10.97;;;7.30;;
33266;SDS011;19638;49.080;11.896;2023-04-28T00:58:02;10.93;;;6.30;;
33266;SDS011;19638;49.080;11.896;2023-04-28T01:02:07;9.37;;;5.93;;
33266;SDS011;19638;49.080;11.896;2023-04-28T01:06:18;11.03;;;6.73;;
33266;SDS011;19638;49.080;11.896;2023-04-28T01:10:23;11.27;;;6.47;;
33266;SDS011;19638;49.080;11.896;2023-04-28T01:14:35;10.80;;;6.00;;
33266;SDS011;19638;49.080;11.896;2023-04-28T01:18:39;11.70;;;6.87;;
33266;SDS011;19638;49.080;11.896;2023-04-28T01:22:48;9.77;;;6.67;;
33266;SDS011;19638;49.080;11.896;2023-04-28T01:26:52;12.33;;;6.10;;
33266;SDS011;19638;49.080;11.896;2023-04-28T01:30:57;13.80;;;6.60;;
33266;SDS011;19638;49.080;11.896;2023-04-28T01:35:00;12.83;;;6.47;;
33266;SDS011;19638;49.080;11.896;2023-04-28T01:39:08;17.80;;;7.83;;
33266;SDS011;19638;49.080;11.896;2023-04-28T01:43:15;11.70;;;6.47;;
33266;SDS011;19638;49.080;11.896;2023-04-28T01:47:18;11.03;;;6.83;;
33266;SDS011;19638;49.080;11.896;2023-04-28T01:51:24;14.10;;;6.70;;
33266;SDS011;19638;49.080;11.896;2023-04-28T01:55:28;13.23;;;6.83;;
33266;SDS011;19638;49.080;11.896;2023-04-28T01:59:32;12.30;;;6.57;;
33266;SDS011;19638;49.080;11.896;2023-04-28T02:03:38;12.77;;;6.20;;
33266;SDS011;19638;49.080;11.896;2023-04-28T02:07:43;10.47;;;6.60;;
33266;SDS011;19638;49.080;11.896;2023-04-28T02:11:46;12.83;;;5.87;;
33266;SDS011;19638;49.080;11.896;2023-04-28T02:15:51;11.23;;;6.30;;
33266;SDS011;19638;49.080;11.896;2023-04-28T02:19:54;11.80;;;6.17;;
33266;SDS011;19638;49.080;11.896;2023-04-28T02:23:57;11.53;;;6.30;;
33266;SDS011;19638;49.080;11.896;2023-04-28T02:28:01;9.10;;;5.77;;
33266;SDS011;19638;49.080;11.896;2023-04-28T02:32:05;15.70;;;6.03;;
33266;SDS011;19638;49.080;11.896;2023-04-28T02:36:09;17.42;;;6.45;;
33266;SDS011;19638;49.080;11.896;2023-04-28T02:40:12;11.57;;;6.37;;
33266;SDS011;19638;49.080;11.896;2023-04-28T02:44:18;12.07;;;6.47;;
33266;SDS011;19638;49.080;11.896;2023-04-28T02:48:23;12.27;;;5.97;;
33266;SDS011;19638;49.080;11.896;2023-04-28T02:52:27;11.80;;;6.57;;
33266;SDS011;19638;49.080;11.896;2023-04-28T02:56:30;11.83;;;5.93;;
33266;SDS011;19638;49.080;11.896;2023-04-28T03:00:33;11.47;;;6.00;;
33266;SDS011;19638;49.080;11.896;2023-04-28T03:04:38;13.53;;;6.20;;
33266;SDS011;19638;49.080;11.896;2023-04-28T03:08:41;8.47;;;5.60;;
33266;SDS011;19638;49.080;11.896;2023-04-28T03:12:47;10.03;;;5.83;;
33266;SDS011;19638;49.080;11.896;2023-04-28T03:16:50;11.77;;;5.90;;
33266;SDS011;19638;49.080;11.896;2023-04-28T03:20:58;7.63;;;5.83;;
33266;SDS011;19638;49.080;11.896;2023-04-28T03:25:07;12.97;;;5.70;;
33266;SDS011;19638;49.080;11.896;2023-04-28T03:29:12;8.40;;;5.27;;
33266;SDS011;19638;49.080;11.896;2023-04-28T03:33:18;8.60;;;5.57;;
33266;SDS011;19638;49.080;11.896;2023-04-28T03:37:24;12.10;;;5.50;;
33266;SDS011;19638;49.080;11.896;2023-04-28T03:41:29;12.47;;;5.60;;
33266;SDS011;19638;49.080;11.896;2023-04-28T03:45:37;7.60;;;5.50;;
33266;SDS011;19638;49.080;11.896;2023-04-28T03:49:42;7.60;;;5.20;;
33266;SDS011;19638;49.080;11.896;2023-04-28T03:53:46;8.10;;;5.20;;
33266;SDS011;19638;49.080;11.896;2023-04-28T03:57:50;8.67;;;5.37;;
33266;SDS011;19638;49.080;11.896;2023-04-28T04:01:54;9.60;;;5.67;;
33266;SDS011;19638;49.080;11.896;2023-04-28T04:05:59;8.57;;;6.03;;
33266;SDS011;19638;49.080;11.896;2023-04-28T04:10:04;11.57;;;5.50;;
33266;SDS011;19638;49.080;11.896;2023-04-28T04:14:08;13.20;;;5.40;;
33266;SDS011;19638;49.080;11.896;2023-04-28T04:18:11;10.83;;;5.40;;
33266;SDS011;19638;49.080;11.896;2023-04-28T04:22:15;7.27;;;5.43;;
33266;SDS011;19638;49.080;11.896;2023-04-28T04:26:20;6.90;;;4.77;;
33266;SDS011;19638;49.080;11.896;2023-04-28T04:30:24;9.60;;;5.23;;
33266;SDS011;19638;49.080;11.896;2023-04-28T04:34:27;8.53;;;4.63;;
33266;SDS011;19638;49.080;11.896;2023-04-28T04:38:33;10.40;;;5.23;;
33266;SDS011;19638;49.080;11.896;2023-04-28T04:42:37;9.33;;;4.83;;
33266;SDS011;19638;49.080;11.896;2023-04-28T04:46:44;9.10;;;5.20;;
33266;SDS011;19638;49.080;11.896;2023-04-28T04:50:50;7.23;;;4.73;;
33266;SDS011;19638;49.080;11.896;2023-04-28T04:54:53;7.17;;;4.60;;
33266;SDS011;19638;49.080;11.896;2023-04-28T04:58:59;10.50;;;4.63;;
33266;SDS011;19638;49.080;11.896;2023-04-28T05:03:03;6.87;;;5.00;;
33266;SDS011;19638;49.080;11.896;2023-04-28T05:07:07;8.90;;;4.93;;
33266;SDS011;19638;49.080;11.896;2023-04-28T05:11:13;7.53;;;4.90;;
33266;SDS011;19638;49.080;11.896;2023-04-28T05:15:20;6.53;;;4.80;;
33266;SDS011;19638;49.080;11.896;2023-04-28T05:19:26;8.13;;;4.40;;
33266;SDS011;19638;49.080;11.896;2023-04-28T05:23:29;10.13;;;5.00;;
33266;SDS011;19638;49.080;11.896;2023-04-28T05:27:32;13.43;;;5.28;;
33266;SDS011;19638;49.080;11.896;2023-04-28T05:31:39;8.33;;;4.83;;
33266;SDS011;19638;49.080;11.896;2023-04-28T05:35:47;6.72;;;5.35;;
33266;SDS011;19638;49.080;11.896;2023-04-28T05:39:50;8.70;;;5.30;;
33266;SDS011;19638;49.080;11.896;2023-04-28T05:43:55;8.85;;;4.68;;
33266;SDS011;19638;49.080;11.896;2023-04-28T05:48:05;12.90;;;5.70;;
33266;SDS011;19638;49.080;11.896;2023-04-28T05:52:09;11.03;;;4.80;;
33266;SDS011;19638;49.080;11.896;2023-04-28T05:56:12;10.80;;;5.18;;
33266;SDS011;19638;49.080;11.896;2023-04-28T06:00:15;10.82;;;5.72;;
33266;SDS011;19638;49.080;11.896;2023-04-28T06:04:21;7.88;;;5.05;;
33266;SDS011;19638;49.080;11.896;2023-04-28T06:08:26;8.60;;;4.82;;
33266;SDS011;19638;49.080;11.896;2023-04-28T06:12:30;14.50;;;5.32;;
33266;SDS011;19638;49.080;11.896;2023-04-28T06:16:35;7.75;;;5.07;;
33266;SDS011;19638;49.080;11.896;2023-04-28T06:20:40;7.05;;;5.30;;
33266;SDS011;19638;49.080;11.896;2023-04-28T06:24:43;11.02;;;5.78;;
33266;SDS011;19638;49.080;11.896;2023-04-28T06:28:46;9.90;;;6.05;;
33266;SDS011;19638;49.080;11.896;2023-04-28T06:32:49;10.20;;;5.28;;
33266;SDS011;19638;49.080;11.896;2023-04-28T06:36:54;10.65;;;5.65;;
33266;SDS011;19638;49.080;11.896;2023-04-28T06:41:00;12.07;;;5.15;;
33266;SDS011;19638;49.080;11.896;2023-04-28T06:45:05;9.15;;;5.40;;
33266;SDS011;19638;49.080;11.896;2023-04-28T06:49:09;8.25;;;5.82;;
33266;SDS011;19638;49.080;11.896;2023-04-28T06:53:15;12.35;;;6.15;;
33266;SDS011;19638;49.080;11.896;2023-04-28T06:57:23;14.63;;;6.57;;
33266;SDS011;19638;49.080;11.896;2023-04-28T07:01:29;9.87;;;5.97;;
33266;SDS011;19638;49.080;11.896;2023-04-28T07:05:32;11.90;;;6.57;;
33266;SDS011;19638;49.080;11.896;2023-04-28T07:09:38;11.02;;;6.55;;
33266;SDS011;19638;49.080;11.896;2023-04-28T07:13:41;9.05;;;6.18;;
33266;SDS011;19638;49.080;11.896;2023-04-28T07:17:44;10.35;;;6.65;;
33266;SDS011;19638;49.080;11.896;2023-04-28T07:21:50;14.13;;;6.93;;
33266;SDS011;19638;49.080;11.896;2023-04-28T07:25:57;13.52;;;6.95;;
33266;SDS011;19638;49.080;11.896;2023-04-28T07:30:09;12.70;;;7.35;;
33266;SDS011;19638;49.080;11.896;2023-04-28T07:34:28;12.23;;;7.15;;
33266;SDS011;19638;49.080;11.896;2023-04-28T07:38:39;10.07;;;7.30;;
33266;SDS011;19638;49.080;11.896;2023-04-28T07:42:44;10.43;;;7.38;;
33266;SDS011;19638;49.080;11.896;2023-04-28T07:46:47;13.48;;;7.80;;
33266;SDS011;19638;49.080;11.896;2023-04-28T07:50:52;14.00;;;7.38;;
33266;SDS011;19638;49.080;11.896;2023-04-28T07:55:00;15.18;;;7.70;;
33266;SDS011;19638;49.080;11.896;2023-04-28T07:59:06;14.10;;;7.45;;
33266;SDS011;19638;49.080;11.896;2023-04-28T08:03:13;17.33;;;7.88;;
33266;SDS011;19638;49.080;11.896;2023-04-28T08:07:16;14.55;;;8.52;;
33266;SDS011;19638;49.080;11.896;2023-04-28T08:11:19;14.40;;;8.13;;
33266;SDS011;19638;49.080;11.896;2023-04-28T08:15:24;18.55;;;8.48;;
33266;SDS011;19638;49.080;11.896;2023-04-28T08:19:28;16.70;;;8.80;;
33266;SDS011;19638;49.080;11.896;2023-04-28T08:23:31;17.77;;;8.73;;
33266;SDS011;19638;49.080;11.896;2023-04-28T08:27:35;15.30;;;9.00;;
33266;SDS011;19638;49.080;11.896;2023-04-28T08:31:44;19.23;;;9.23;;
33266;SDS011;19638;49.080;11.896;2023-04-28T08:35:47;18.30;;;9.32;;
33266;SDS011;19638;49.080;11.896;2023-04-28T08:39:52;16.77;;;9.77;;
33266;SDS011;19638;49.080;11.896;2023-04-28T08:44:05;18.15;;;9.10;;
33266;SDS011;19638;49.080;11.896;2023-04-28T08:48:16;18.83;;;9.52;;
33266;SDS011;19638;49.080;11.896;2023-04-28T08:52:22;18.15;;;9.77;;
33266;SDS011;19638;49.080;11.896;2023-04-28T08:56:33;20.70;;;9.35;;
33266;SDS011;19638;49.080;11.896;2023-04-28T09:00:37;24.30;;;10.15;;
33266;SDS011;19638;49.080;11.896;2023-04-28T09:04:41;15.43;;;10.32;;
33266;SDS011;19638;49.080;11.896;2023-04-28T09:08:47;20.35;;;10.30;;
33266;SDS011;19638;49.080;11.896;2023-04-28T09:12:51;19.08;;;10.15;;
33266;SDS011;19638;49.080;11.896;2023-04-28T09:16:59;22.40;;;10.50;;
33266;SDS011;19638;49.080;11.896;2023-04-28T09:21:12;22.35;;;11.65;;
33266;SDS011;19638;49.080;11.896;2023-04-28T09:25:15;22.63;;;12.73;;
33266;SDS011;19638;49.080;11.896;2023-04-28T09:29:21;24.15;;;12.65;;
33266;SDS011;19638;49.080;11.896;2023-04-28T09:33:24;23.25;;;12.18;;
33266;SDS011;19638;49.080;11.896;2023-04-28T09:37:29;23.83;;;11.75;;
33266;SDS011;19638;49.080;11.896;2023-04-28T09:41:35;21.50;;;11.45;;
33266;SDS011;19638;49.080;11.896;2023-04-28T09:45:42;22.35;;;12.52;;
33266;SDS011;19638;49.080;11.896;2023-04-28T09:49:55;22.02;;;12.10;;
33266;SDS011;19638;49.080;11.896;2023-04-28T09:54:02;23.48;;;12.90;;
33266;SDS011;19638;49.080;11.896;2023-04-28T09:58:11;18.63;;;12.18;;
33266;SDS011;19638;49.080;11.896;2023-04-28T10:02:17;20.30;;;12.45;;
33266;SDS011;19638;49.080;11.896;2023-04-28T10:06:42;24.23;;;12.15;;
33266;SDS011;19638;49.080;11.896;2023-04-28T10:10:48;20.33;;;12.50;;
33266;SDS011;19638;49.080;11.896;2023-04-28T10:14:53;23.95;;;13.65;;
33266;SDS011;19638;49.080;11.896;2023-04-28T10:18:57;27.75;;;14.43;;
33266;SDS011;19638;49.080;11.896;2023-04-28T10:23:05;25.70;;;13.75;;
33266;SDS011;19638;49.080;11.896;2023-04-28T10:27:29;24.85;;;13.13;;
33266;SDS011;19638;49.080;11.896;2023-04-28T10:31:33;23.63;;;13.15;;
33266;SDS011;19638;49.080;11.896;2023-04-28T10:35:41;28.88;;;13.85;;
33266;SDS011;19638;49.080;11.896;2023-04-28T10:44:42;37.22;;;15.30;;
33266;SDS011;19638;49.080;11.896;2023-04-28T10:48:52;23.98;;;13.77;;
33266;SDS011;19638;49.080;11.896;2023-04-28T10:52:59;20.58;;;12.70;;
33266;SDS011;19638;49.080;11.896;2023-04-28T11:01:30;27.13;;;14.65;;
33266;SDS011;19638;49.080;11.896;2023-04-28T11:05:35;27.02;;;13.70;;
33266;SDS011;19638;49.080;11.896;2023-04-28T11:09:50;21.30;;;13.05;;
33266;SDS011;19638;49.080;11.896;2023-04-28T11:13:54;21.83;;;12.88;;
33266;SDS011;19638;49.080;11.896;2023-04-28T11:18:18;21.65;;;12.85;;
33266;SDS011;19638;49.080;11.896;2023-04-28T11:22:23;22.85;;;13.18;;
33266;SDS011;19638;49.080;11.896;2023-04-28T11:26:26;17.70;;;11.23;;
33266;SDS011;19638;49.080;11.896;2023-04-28T11:30:30;19.80;;;11.85;;
33266;SDS011;19638;49.080;11.896;2023-04-28T11:34:35;18.65;;;11.65;;
33266;SDS011;19638;49.080;11.896;2023-04-28T11:38:42;24.75;;;11.80;;
33266;SDS011;19638;49.080;11.896;2023-04-28T11:42:49;22.38;;;13.77;;
33266;SDS011;19638;49.080;11.896;2023-04-28T11:46:59;19.10;;;12.13;;
33266;SDS011;19638;49.080;11.896;2023-04-28T11:51:11;19.45;;;12.27;;
33266;SDS011;19638;49.080;11.896;2023-04-28T11:55:33;20.30;;;12.88;;
33266;SDS011;19638;49.080;11.896;2023-04-28T11:59:39;20.15;;;13.52;;
33266;SDS011;19638;49.080;11.896;2023-04-28T12:03:45;24.48;;;13.85;;
33266;SDS011;19638;49.080;11.896;2023-04-28T12:07:50;22.98;;;13.57;;
33266;SDS011;19638;49.080;11.896;2023-04-28T12:11:54;18.10;;;12.43;;
33266;SDS011;19638;49.080;11.896;2023-04-28T12:15:58;23.00;;;13.40;;
33266;SDS011;19638;49.080;11.896;2023-04-28T12:20:07;19.38;;;12.35;;
33266;SDS011;19638;49.080;11.896;2023-04-28T12:24:15;19.52;;;13.45;;
33266;SDS011;19638;49.080;11.896;2023-04-28T12:28:34;20.63;;;13.13;;
33266;SDS011;19638;49.080;11.896;2023-04-28T12:32:39;26.63;;;15.70;;
33266;SDS011;19638;49.080;11.896;2023-04-28T12:36:46;26.35;;;15.15;;
33266;SDS011;19638;49.080;11.896;2023-04-28T12:40:51;25.50;;;14.70;;
33266;SDS011;19638;49.080;11.896;2023-04-28T12:44:54;23.52;;;14.20;;
33266;SDS011;19638;49.080;11.896;2023-04-28T12:48:57;20.83;;;12.95;;
33266;SDS011;19638;49.080;11.896;2023-04-28T12:53:02;19.25;;;12.48;;
33266;SDS011;19638;49.080;11.896;2023-04-28T12:57:13;21.67;;;13.68;;
33266;SDS011;19638;49.080;11.896;2023-04-28T13:01:17;27.80;;;16.85;;
33266;SDS011;19638;49.080;11.896;2023-04-28T13:05:20;23.38;;;14.20;;
33266;SDS011;19638;49.080;11.896;2023-04-28T13:09:24;37.75;;;20.85;;
33266;SDS011;19638;49.080;11.896;2023-04-28T13:13:33;21.48;;;14.73;;
33266;SDS011;19638;49.080;11.896;2023-04-28T13:17:37;18.38;;;12.75;;
33266;SDS011;19638;49.080;11.896;2023-04-28T13:21:43;22.88;;;14.60;;
33266;SDS011;19638;49.080;11.896;2023-04-28T13:25:49;22.15;;;14.90;;
33266;SDS011;19638;49.080;11.896;2023-04-28T13:29:56;23.33;;;14.30;;
33266;SDS011;19638;49.080;11.896;2023-04-28T13:34:00;24.00;;;14.95;;
33266;SDS011;19638;49.080;11.896;2023-04-28T13:38:05;21.35;;;14.02;;
33266;SDS011;19638;49.080;11.896;2023-04-28T13:42:13;23.10;;;14.63;;
33266;SDS011;19638;49.080;11.896;2023-04-28T13:46:22;22.90;;;14.88;;
33266;SDS011;19638;49.080;11.896;2023-04-28T13:50:26;33.47;;;20.02;;
33266;SDS011;19638;49.080;11.896;2023-04-28T13:54:40;47.53;;;25.13;;
33266;SDS011;19638;49.080;11.896;2023-04-28T13:58:46;20.52;;;14.05;;
33266;SDS011;19638;49.080;11.896;2023-04-28T14:02:51;22.27;;;15.02;;
33266;SDS011;19638;49.080;11.896;2023-04-28T14:06:54;23.80;;;15.05;;
33266;SDS011;19638;49.080;11.896;2023-04-28T14:10:59;29.58;;;15.10;;
33266;SDS011;19638;49.080;11.896;2023-04-28T14:15:03;23.17;;;15.27;;
33266;SDS011;19638;49.080;11.896;2023-04-28T14:19:07;23.08;;;16.08;;
33266;SDS011;19638;49.080;11.896;2023-04-28T14:23:11;25.30;;;14.85;;
33266;SDS011;19638;49.080;11.896;2023-04-28T14:27:15;25.55;;;15.30;;
33266;SDS011;19638;49.080;11.896;2023-04-28T14:31:20;29.00;;;16.70;;
33266;SDS011;19638;49.080;11.896;2023-04-28T14:35:25;26.45;;;16.00;;
33266;SDS011;19638;49.080;11.896;2023-04-28T14:39:30;22.50;;;15.30;;
33266;SDS011;19638;49.080;11.896;2023-04-28T14:43:40;21.30;;;15.20;;
33266;SDS011;19638;49.080;11.896;2023-04-28T14:47:47;24.63;;;16.42;;
33266;SDS011;19638;49.080;11.896;2023-04-28T14:51:53;29.00;;;16.35;;
33266;SDS011;19638;49.080;11.896;2023-04-28T14:55:56;22.13;;;15.63;;
33266;SDS011;19638;49.080;11.896;2023-04-28T15:00:05;24.58;;;15.63;;
33266;SDS011;19638;49.080;11.896;2023-04-28T15:04:09;23.50;;;14.85;;
33266;SDS011;19638;49.080;11.896;2023-04-28T15:08:15;22.27;;;15.23;;
33266;SDS011;19638;49.080;11.896;2023-04-28T15:12:19;23.80;;;14.98;;
33266;SDS011;19638;49.080;11.896;2023-04-28T15:16:22;28.85;;;16.40;;
33266;SDS011;19638;49.080;11.896;2023-04-28T15:20:26;29.02;;;17.38;;
33266;SDS011;19638;49.080;11.896;2023-04-28T15:24:32;27.80;;;19.30;;
33266;SDS011;19638;49.080;11.896;2023-04-28T15:28:36;28.58;;;16.90;;
33266;SDS011;19638;49.080;11.896;2023-04-28T15:32:41;28.52;;;18.48;;
33266;SDS011;19638;49.080;11.896;2023-04-28T15:36:47;30.48;;;18.48;;
33266;SDS011;19638;49.080;11.896;2023-04-28T15:40:51;27.67;;;17.83;;
33266;SDS011;19638;49.080;11.896;2023-04-28T15:44:55;33.97;;;18.83;;
33266;SDS011;19638;49.080;11.896;2023-04-28T15:48:58;31.58;;;19.10;;
33266;SDS011;19638;49.080;11.896;2023-04-28T15:53:06;31.02;;;19.60;;
33266;SDS011;19638;49.080;11.896;2023-04-28T15:57:15;35.88;;;18.95;;
33266;SDS011;19638;49.080;11.896;2023-04-28T16:01:19;32.40;;;19.27;;
33266;SDS011;19638;49.080;11.896;2023-04-28T16:05:25;32.25;;;20.25;;
33266;SDS011;19638;49.080;11.896;2023-04-28T16:09:30;33.83;;;20.23;;
33266;SDS011;19638;49.080;11.896;2023-04-28T16:13:35;38.08;;;20.88;;
33266;SDS011;19638;49.080;11.896;2023-04-28T16:17:43;31.60;;;17.90;;
33266;SDS011;19638;49.080;11.896;2023-04-28T16:21:46;24.90;;;15.90;;
33266;SDS011;19638;49.080;11.896;2023-04-28T16:25:49;25.02;;;14.52;;
33266;SDS011;19638;49.080;11.896;2023-04-28T16:29:57;20.23;;;14.02;;
33266;SDS011;19638;49.080;11.896;2023-04-28T16:34:00;24.88;;;14.65;;
33266;SDS011;19638;49.080;11.896;2023-04-28T16:38:04;19.40;;;13.43;;
33266;SDS011;19638;49.080;11.896;2023-04-28T16:42:07;22.23;;;13.75;;
33266;SDS011;19638;49.080;11.896;2023-04-28T16:46:16;22.63;;;13.18;;
33266;SDS011;19638;49.080;11.896;2023-04-28T16:50:20;43.85;;;23.20;;
33266;SDS011;19638;49.080;11.896;2023-04-28T16:54:25;36.40;;;18.27;;
33266;SDS011;19638;49.080;11.896;2023-04-28T16:58:28;28.30;;;14.85;;
33266;SDS011;19638;49.080;11.896;2023-04-28T17:02:37;30.17;;;16.42;;
33266;SDS011;19638;49.080;11.896;2023-04-28T17:06:40;37.00;;;17.38;;
33266;SDS011;19638;49.080;11.896;2023-04-28T17:10:43;30.33;;;16.33;;
33266;SDS011;19638;49.080;11.896;2023-04-28T17:14:47;35.05;;;16.75;;
33266;SDS011;19638;49.080;11.896;2023-04-28T17:18:54;35.20;;;17.75;;
33266;SDS011;19638;49.080;11.896;2023-04-28T17:22:57;33.25;;;17.90;;
33266;SDS011;19638;49.080;11.896;2023-04-28T17:27:04;40.03;;;18.80;;
33266;SDS011;19638;49.080;11.896;2023-04-28T17:31:07;40.83;;;19.40;;
33266;SDS011;19638;49.080;11.896;2023-04-28T17:35:19;42.40;;;18.35;;
33266;SDS011;19638;49.080;11.896;2023-04-28T17:39:22;41.15;;;18.77;;
33266;SDS011;19638;49.080;11.896;2023-04-28T17:43:25;48.88;;;20.92;;
33266;SDS011;19638;49.080;11.896;2023-04-28T17:47:30;46.05;;;19.77;;
33266;SDS011;19638;49.080;11.896;2023-04-28T17:51:41;56.15;;;22.80;;
33266;SDS011;19638;49.080;11.896;2023-04-28T17:55:44;49.58;;;20.20;;
33266;SDS011;19638;49.080;11.896;2023-04-28T17:59:50;44.78;;;20.70;;
33266;SDS011;19638;49.080;11.896;2023-04-28T18:03:54;57.15;;;22.35;;
33266;SDS011;19638;49.080;11.896;2023-04-28T18:08:05;52.60;;;20.60;;
33266;SDS011;19638;49.080;11.896;2023-04-28T18:12:11;45.10;;;18.95;;
33266;SDS011;19638;49.080;11.896;2023-04-28T18:16:14;98.28;;;23.08;;
33266;SDS011;19638;49.080;11.896;2023-04-28T18:20:18;80.72;;;29.15;;
33266;SDS011;19638;49.080;11.896;2023-04-28T18:24:23;52.17;;;22.75;;
33266;SDS011;19638;49.080;11.896;2023-04-28T18:28:26;66.05;;;26.98;;
33266;SDS011;19638;49.080;11.896;2023-04-28T18:32:30;62.30;;;26.90;;
33266;SDS011;19638;49.080;11.896;2023-04-28T18:36:40;45.92;;;22.23;;
33266;SDS011;19638;49.080;11.896;2023-04-28T18:40:51;46.13;;;18.77;;
33266;SDS011;19638;49.080;11.896;2023-04-28T18:44:54;45.67;;;19.73;;
33266;SDS011;19638;49.080;11.896;2023-04-28T18:48:59;47.38;;;17.85;;
33266;SDS011;19638;49.080;11.896;2023-04-28T18:53:11;37.42;;;16.00;;
33266;SDS011;19638;49.080;11.896;2023-04-28T18:57:20;42.22;;;17.67;;
33266;SDS011;19638;49.080;11.896;2023-04-28T19:01:23;50.95;;;18.85;;
33266;SDS011;19638;49.080;11.896;2023-04-28T19:05:29;44.05;;;18.02;;
33266;SDS011;19638;49.080;11.896;2023-04-28T19:09:36;53.97;;;19.50;;
33266;SDS011;19638;49.080;11.896;2023-04-28T19:13:43;42.70;;;18.15;;
33266;SDS011;19638;49.080;11.896;2023-04-28T19:17:46;53.70;;;19.15;;
33266;SDS011;19638;49.080;11.896;2023-04-28T19:21:50;48.70;;;18.02;;
33266;SDS011;19638;49.080;11.896;2023-04-28T19:25:53;71.35;;;23.52;;
33266;SDS011;19638;49.080;11.896;2023-04-28T19:30:00;60.70;;;22.00;;
33266;SDS011;19638;49.080;11.896;2023-04-28T19:34:06;72.22;;;21.73;;
33266;SDS011;19638;49.080;11.896;2023-04-28T19:38:09;79.28;;;23.45;;
33266;SDS011;19638;49.080;11.896;2023-04-28T19:42:13;81.38;;;23.50;;
33266;SDS011;19638;49.080;11.896;2023-04-28T19:46:22;104.20;;;26.05;;
33266;SDS011;19638;49.080;11.896;2023-04-28T19:50:25;96.22;;;26.92;;
33266;SDS011;19638;49.080;11.896;2023-04-28T19:54:28;131.18;;;25.13;;
33266;SDS011;19638;49.080;11.896;2023-04-28T19:58:31;51.08;;;19.63;;
33266;SDS011;19638;49.080;11.896;2023-04-28T20:02:36;42.45;;;16.38;;
33266;SDS011;19638;49.080;11.896;2023-04-28T20:06:39;35.60;;;13.68;;
33266;SDS011;19638;49.080;11.896;2023-04-28T20:10:43;24.60;;;11.40;;
33266;SDS011;19638;49.080;11.896;2023-04-28T20:14:48;26.10;;;11.80;;
33266;SDS011;19638;49.080;11.896;2023-04-28T20:18:55;23.75;;;11.77;;
33266;SDS011;19638;49.080;11.896;2023-04-28T20:23:00;26.58;;;11.73;;
33266;SDS011;19638;49.080;11.896;2023-04-28T20:27:08;20.70;;;9.52;;
33266;SDS011;19638;49.080;11.896;2023-04-28T20:31:13;11.07;;;6.28;;
33266;SDS011;19638;49.080;11.896;2023-04-28T20:35:18;6.55;;;3.92;;
33266;SDS011;19638;49.080;11.896;2023-04-28T20:39:23;7.00;;;4.07;;
33266;SDS011;19638;49.080;11.896;2023-04-28T20:43:31;5.95;;;4.00;;
33266;SDS011;19638;49.080;11.896;2023-04-28T20:47:34;6.35;;;3.50;;
33266;SDS011;19638;49.080;11.896;2023-04-28T20:51:40;5.07;;;3.33;;
33266;SDS011;19638;49.080;11.896;2023-04-28T20:55:48;4.45;;;3.20;;
33266;SDS011;19638;49.080;11.896;2023-04-28T20:59:51;3.33;;;2.58;;
33266;SDS011;19638;49.080;11.896;2023-04-28T21:03:54;4.43;;;3.25;;
33266;SDS011;19638;49.080;11.896;2023-04-28T21:07:59;7.90;;;4.25;;
33266;SDS011;19638;49.080;11.896;2023-04-28T21:12:05;6.50;;;3.60;;
33266;SDS011;19638;49.080;11.896;2023-04-28T21:16:11;4.43;;;3.38;;
33266;SDS011;19638;49.080;11.896;2023-04-28T21:20:21;3.97;;;3.10;;
33266;SDS011;19638;49.080;11.896;2023-04-28T21:24:26;6.95;;;3.50;;
33266;SDS011;19638;49.080;11.896;2023-04-28T21:28:29;5.70;;;3.58;;
33266;SDS011;19638;49.080;11.896;2023-04-28T21:32:35;5.45;;;3.65;;
33266;SDS011;19638;49.080;11.896;2023-04-28T21:36:40;5.60;;;3.70;;
33266;SDS011;19638;49.080;11.896;2023-04-28T21:40:46;6.03;;;3.35;;
33266;SDS011;19638;49.080;11.896;2023-04-28T21:45:00;5.78;;;3.55;;
33266;SDS011;19638;49.080;11.896;2023-04-28T21:49:03;5.07;;;3.67;;
33266;SDS011;19638;49.080;11.896;2023-04-28T21:53:07;4.45;;;3.40;;
33266;SDS011;19638;49.080;11.896;2023-04-28T21:57:12;7.28;;;3.30;;
33266;SDS011;19638;49.080;11.896;2023-04-28T22:01:17;9.32;;;3.78;;
33266;SDS011;19638;49.080;11.896;2023-04-28T22:05:21;9.15;;;4.45;;
33266;SDS011;19638;49.080;11.896;2023-04-28T22:09:27;6.80;;;4.28;;
33266;SDS011;19638;49.080;11.896;2023-04-28T22:13:35;12.80;;;5.10;;
33266;SDS011;19638;49.080;11.896;2023-04-28T22:17:38;10.88;;;4.63;;
33266;SDS011;19638;49.080;11.896;2023-04-28T22:21:41;11.63;;;4.43;;
33266;SDS011;19638;49.080;11.896;2023-04-28T22:25:47;7.72;;;4.35;;
33266;SDS011;19638;49.080;11.896;2023-04-28T22:29:52;8.05;;;4.45;;
33266;SDS011;19638;49.080;11.896;2023-04-28T22:33:55;17.40;;;5.05;;
33266;SDS011;19638;49.080;11.896;2023-04-28T22:37:59;13.65;;;5.03;;
33266;SDS011;19638;49.080;11.896;2023-04-28T22:42:02;15.65;;;5.10;;
33266;SDS011;19638;49.080;11.896;2023-04-28T22:46:09;10.57;;;5.30;;
33266;SDS011;19638;49.080;11.896;2023-04-28T22:50:12;16.20;;;6.00;;
33266;SDS011;19638;49.080;11.896;2023-04-28T22:54:16;11.75;;;5.85;;
33266;SDS011;19638;49.080;11.896;2023-04-28T22:58:22;110.30;;;9.65;;
33266;SDS011;19638;49.080;11.896;2023-04-28T23:02:27;520.42;;;21.80;;
33266;SDS011;19638;49.080;11.896;2023-04-28T23:06:31;266.63;;;12.65;;
33266;SDS011;19638;49.080;11.896;2023-04-28T23:10:37;179.25;;;11.82;;
33266;SDS011;19638;49.080;11.896;2023-04-28T23:14:41;533.35;;;23.27;;
33266;SDS011;19638;49.080;11.896;2023-04-28T23:18:48;33.28;;;8.32;;
33266;SDS011;19638;49.080;11.896;2023-04-28T23:22:56;33.15;;;7.47;;
33266;SDS011;19638;49.080;11.896;2023-04-28T23:27:02;14.30;;;6.25;;
33266;SDS011;19638;49.080;11.896;2023-04-28T23:31:12;16.77;;;6.70;;
33266;SDS011;19638;49.080;11.896;2023-04-28T23:35:21;11.02;;;6.05;;
33266;SDS011;19638;49.080;11.896;2023-04-28T23:39:27;13.10;;;5.95;;
33266;SDS011;19638;49.080;11.896;2023-04-28T23:43:31;8.27;;;5.13;;
33266;SDS011;19638;49.080;11.896;2023-04-28T23:47:34;11.13;;;5.32;;
33266;SDS011;19638;49.080;11.896;2023-04-28T23:51:39;12.13;;;5.95;;
33266;SDS011;19638;49.080;11.896;2023-04-28T23:55:44;17.33;;;9.50;;
33266;SDS011;19638;49.080;11.896;2023-04-28T23:59:47;14.15;;;6.32;;
